sensor_id;sensor_type;location;lat;lon;timestamp;pressure;altitude;pressure_sealevel;temperature;humidity
62978;BME280;49073;42.352;23.808;2022-07-29T00:02:56;94900.78;;;19.57;76.92
62978;BME280;49073;42.352;23.808;2022-07-29T00:05:57;94902.78;;;19.53;76.95
62978;BME280;49073;42.352;23.808;2022-07-29T00:08:57;94906.22;;;19.54;76.86
62978;BME280;49073;42.352;23.808;2022-07-29T00:11:58;94909.69;;;19.54;76.96
62978;BME280;49073;42.352;23.808;2022-07-29T00:14:59;94910.81;;;19.57;76.92
62978;BME280;49073;42.352;23.808;2022-07-29T00:18:00;94904.94;;;19.62;76.60
62978;BME280;49073;42.352;23.808;2022-07-29T00:21:00;94900.91;;;19.46;77.05
62978;BME280;49073;42.352;23.808;2022-07-29T00:24:00;94902.47;;;19.44;77.41
62978;BME280;49073;42.352;23.808;2022-07-29T00:27:01;94899.50;;;19.34;77.46
62978;BME280;49073;42.352;23.808;2022-07-29T00:30:02;94905.63;;;19.39;77.78
62978;BME280;49073;42.352;23.808;2022-07-29T00:33:03;94911.13;;;19.31;77.14
62978;BME280;49073;42.352;23.808;2022-07-29T00:36:03;94914.47;;;19.43;75.78
62978;BME280;49073;42.352;23.808;2022-07-29T00:39:04;94908.84;;;19.30;75.91
62978;BME280;49073;42.352;23.808;2022-07-29T00:42:04;94907.44;;;19.14;77.59
62978;BME280;49073;42.352;23.808;2022-07-29T00:45:05;94905.13;;;19.16;77.18
62978;BME280;49073;42.352;23.808;2022-07-29T00:48:05;94895.88;;;19.14;77.18
62978;BME280;49073;42.352;23.808;2022-07-29T00:51:06;94902.84;;;19.11;77.02
62978;BME280;49073;42.352;23.808;2022-07-29T00:54:07;94890.25;;;19.01;77.23
62978;BME280;49073;42.352;23.808;2022-07-29T00:57:08;94906.06;;;18.99;77.57
62978;BME280;49073;42.352;23.808;2022-07-29T01:00:09;94899.13;;;19.01;77.22
62978;BME280;49073;42.352;23.808;2022-07-29T01:03:10;94898.69;;;19.07;77.24
62978;BME280;49073;42.352;23.808;2022-07-29T01:06:11;94900.13;;;19.15;77.06
62978;BME280;49073;42.352;23.808;2022-07-29T01:09:14;94895.91;;;19.10;76.97
62978;BME280;49073;42.352;23.808;2022-07-29T01:12:17;94895.09;;;19.17;76.28
62978;BME280;49073;42.352;23.808;2022-07-29T01:15:17;94897.72;;;18.86;77.50
62978;BME280;49073;42.352;23.808;2022-07-29T01:18:28;94893.09;;;18.83;77.68
62978;BME280;49073;42.352;23.808;2022-07-29T01:21:39;94891.63;;;18.74;77.77
62978;BME280;49073;42.352;23.808;2022-07-29T01:24:54;94891.97;;;18.80;77.87
62978;BME280;49073;42.352;23.808;2022-07-29T01:28:14;94889.22;;;18.84;77.50
62978;BME280;49073;42.352;23.808;2022-07-29T01:31:22;94881.63;;;18.75;77.26
62978;BME280;49073;42.352;23.808;2022-07-29T01:34:27;94886.31;;;18.67;77.98
62978;BME280;49073;42.352;23.808;2022-07-29T01:37:36;94878.50;;;18.76;76.54
62978;BME280;49073;42.352;23.808;2022-07-29T01:44:22;94880.16;;;18.67;76.80
62978;BME280;49073;42.352;23.808;2022-07-29T01:47:25;94877.13;;;18.61;77.08
62978;BME280;49073;42.352;23.808;2022-07-29T01:50:30;94877.56;;;18.56;77.91
62978;BME280;49073;42.352;23.808;2022-07-29T01:53:42;94875.22;;;18.58;77.63
62978;BME280;49073;42.352;23.808;2022-07-29T01:56:45;94883.59;;;18.67;76.93
62978;BME280;49073;42.352;23.808;2022-07-29T01:59:47;94877.78;;;18.72;75.98
62978;BME280;49073;42.352;23.808;2022-07-29T02:02:48;94880.44;;;18.76;75.59
62978;BME280;49073;42.352;23.808;2022-07-29T02:05:49;94886.66;;;18.69;75.14
62978;BME280;49073;42.352;23.808;2022-07-29T02:08:51;94884.09;;;18.58;75.41
62978;BME280;49073;42.352;23.808;2022-07-29T02:11:53;94881.41;;;18.55;75.62
62978;BME280;49073;42.352;23.808;2022-07-29T02:14:55;94879.97;;;18.46;76.11
62978;BME280;49073;42.352;23.808;2022-07-29T02:18:07;94873.78;;;18.46;76.44
62978;BME280;49073;42.352;23.808;2022-07-29T02:21:09;94876.09;;;18.48;76.20
62978;BME280;49073;42.352;23.808;2022-07-29T02:24:10;94873.81;;;18.42;76.54
62978;BME280;49073;42.352;23.808;2022-07-29T02:27:12;94879.31;;;18.31;76.28
62978;BME280;49073;42.352;23.808;2022-07-29T02:30:14;94876.97;;;18.37;76.24
62978;BME280;49073;42.352;23.808;2022-07-29T02:33:15;94877.03;;;18.30;76.39
62978;BME280;49073;42.352;23.808;2022-07-29T02:36:16;94878.13;;;18.36;75.67
62978;BME280;49073;42.352;23.808;2022-07-29T02:39:17;94870.53;;;18.20;76.36
62978;BME280;49073;42.352;23.808;2022-07-29T02:42:19;94870.47;;;18.31;75.66
62978;BME280;49073;42.352;23.808;2022-07-29T02:45:21;94874.25;;;18.37;74.41
62978;BME280;49073;42.352;23.808;2022-07-29T02:48:22;94873.69;;;18.11;75.31
62978;BME280;49073;42.352;23.808;2022-07-29T02:51:36;94866.81;;;18.03;76.33
62978;BME280;49073;42.352;23.808;2022-07-29T02:54:51;94864.47;;;18.05;76.64
62978;BME280;49073;42.352;23.808;2022-07-29T03:00:58;94867.50;;;18.14;75.60
62978;BME280;49073;42.352;23.808;2022-07-29T03:04:00;94872.59;;;17.98;76.39
62978;BME280;49073;42.352;23.808;2022-07-29T03:07:01;94874.16;;;18.02;75.84
62978;BME280;49073;42.352;23.808;2022-07-29T03:10:02;94875.28;;;18.05;75.14
62978;BME280;49073;42.352;23.808;2022-07-29T03:13:03;94867.31;;;17.83;76.38
62978;BME280;49073;42.352;23.808;2022-07-29T03:16:05;94867.66;;;17.89;76.85
62978;BME280;49073;42.352;23.808;2022-07-29T03:19:05;94870.28;;;18.00;76.44
62978;BME280;49073;42.352;23.808;2022-07-29T03:22:06;94871.44;;;17.99;76.36
62978;BME280;49073;42.352;23.808;2022-07-29T03:25:07;94875.66;;;18.00;76.20
62978;BME280;49073;42.352;23.808;2022-07-29T03:28:08;94880.72;;;18.01;76.00
62978;BME280;49073;42.352;23.808;2022-07-29T03:31:08;94873.75;;;17.97;76.25
62978;BME280;49073;42.352;23.808;2022-07-29T03:34:09;94876.38;;;18.11;75.46
62978;BME280;49073;42.352;23.808;2022-07-29T03:37:09;94881.06;;;18.00;75.10
62978;BME280;49073;42.352;23.808;2022-07-29T03:40:10;94879.59;;;17.88;76.96
62978;BME280;49073;42.352;23.808;2022-07-29T03:43:11;94882.66;;;17.94;77.20
62978;BME280;49073;42.352;23.808;2022-07-29T03:46:13;94875.78;;;17.82;77.96
62978;BME280;49073;42.352;23.808;2022-07-29T03:49:15;94883.03;;;17.92;77.84
62978;BME280;49073;42.352;23.808;2022-07-29T03:52:16;94879.91;;;18.05;77.91
62978;BME280;49073;42.352;23.808;2022-07-29T03:55:17;94872.13;;;18.14;77.53
62978;BME280;49073;42.352;23.808;2022-07-29T03:58:19;94873.63;;;18.18;77.47
62978;BME280;49073;42.352;23.808;2022-07-29T04:01:19;94879.00;;;18.18;77.85
62978;BME280;49073;42.352;23.808;2022-07-29T04:04:20;94888.97;;;18.29;78.12
62978;BME280;49073;42.352;23.808;2022-07-29T04:07:21;94885.94;;;18.23;78.72
62978;BME280;49073;42.352;23.808;2022-07-29T04:10:21;94881.31;;;18.20;79.69
62978;BME280;49073;42.352;23.808;2022-07-29T04:13:23;94877.53;;;18.10;80.24
62978;BME280;49073;42.352;23.808;2022-07-29T04:16:23;94880.28;;;18.03;80.69
62978;BME280;49073;42.352;23.808;2022-07-29T04:19:23;94886.31;;;18.22;80.88
62978;BME280;49073;42.352;23.808;2022-07-29T04:22:24;94880.41;;;18.38;80.99
62978;BME280;49073;42.352;23.808;2022-07-29T04:25:24;94889.59;;;18.44;80.93
62978;BME280;49073;42.352;23.808;2022-07-29T04:28:25;94882.97;;;18.52;80.64
62978;BME280;49073;42.352;23.808;2022-07-29T04:31:26;94883.31;;;18.58;80.94
62978;BME280;49073;42.352;23.808;2022-07-29T04:34:26;94884.47;;;18.57;81.71
62978;BME280;49073;42.352;23.808;2022-07-29T04:37:27;94889.16;;;18.49;82.17
62978;BME280;49073;42.352;23.808;2022-07-29T04:40:27;94891.94;;;18.42;81.63
62978;BME280;49073;42.352;23.808;2022-07-29T04:43:27;94898.41;;;18.52;81.14
62978;BME280;49073;42.352;23.808;2022-07-29T04:46:27;94896.88;;;18.51;81.66
62978;BME280;49073;42.352;23.808;2022-07-29T04:49:28;94906.88;;;18.54;81.48
62978;BME280;49073;42.352;23.808;2022-07-29T04:52:28;94891.69;;;18.71;82.13
62978;BME280;49073;42.352;23.808;2022-07-29T04:55:28;94888.53;;;18.76;80.94
62978;BME280;49073;42.352;23.808;2022-07-29T04:58:29;94884.59;;;18.88;80.96
62978;BME280;49073;42.352;23.808;2022-07-29T05:01:29;94884.88;;;18.97;81.13
62978;BME280;49073;42.352;23.808;2022-07-29T05:04:29;94894.03;;;19.07;80.63
62978;BME280;49073;42.352;23.808;2022-07-29T05:07:30;94894.84;;;19.04;80.64
62978;BME280;49073;42.352;23.808;2022-07-29T05:10:30;94899.75;;;19.13;79.25
62978;BME280;49073;42.352;23.808;2022-07-29T05:13:30;94898.56;;;19.17;78.78
62978;BME280;49073;42.352;23.808;2022-07-29T05:16:31;94896.22;;;19.19;78.49
62978;BME280;49073;42.352;23.808;2022-07-29T05:19:31;94900.41;;;19.24;78.92
62978;BME280;49073;42.352;23.808;2022-07-29T05:22:31;94908.75;;;19.37;80.98
62978;BME280;49073;42.352;23.808;2022-07-29T05:25:32;94901.81;;;19.36;79.72
62978;BME280;49073;42.352;23.808;2022-07-29T05:28:33;94906.44;;;19.36;79.50
62978;BME280;49073;42.352;23.808;2022-07-29T05:31:33;94908.69;;;19.41;79.88
62978;BME280;49073;42.352;23.808;2022-07-29T05:34:34;94909.38;;;19.48;81.00
62978;BME280;49073;42.352;23.808;2022-07-29T05:37:34;94908.53;;;19.55;82.26
62978;BME280;49073;42.352;23.808;2022-07-29T05:40:35;94906.13;;;19.61;80.63
62978;BME280;49073;42.352;23.808;2022-07-29T05:43:35;94911.03;;;19.70;80.45
62978;BME280;49073;42.352;23.808;2022-07-29T05:46:36;94898.50;;;19.83;80.45
62978;BME280;49073;42.352;23.808;2022-07-29T05:49:36;94911.19;;;19.90;80.68
62978;BME280;49073;42.352;23.808;2022-07-29T05:52:36;94912.09;;;19.80;80.04
62978;BME280;49073;42.352;23.808;2022-07-29T05:55:37;94911.72;;;19.77;79.98
62978;BME280;49073;42.352;23.808;2022-07-29T05:58:37;94913.50;;;19.88;79.36
62978;BME280;49073;42.352;23.808;2022-07-29T06:01:37;94920.66;;;20.02;79.05
62978;BME280;49073;42.352;23.808;2022-07-29T06:04:39;94916.94;;;20.19;77.82
62978;BME280;49073;42.352;23.808;2022-07-29T06:07:39;94917.06;;;20.36;77.64
62978;BME280;49073;42.352;23.808;2022-07-29T06:10:40;94913.31;;;20.54;77.42
62978;BME280;49073;42.352;23.808;2022-07-29T06:13:41;94922.19;;;20.54;77.38
62978;BME280;49073;42.352;23.808;2022-07-29T06:16:41;94924.19;;;20.74;75.04
62978;BME280;49073;42.352;23.808;2022-07-29T06:19:42;94922.84;;;20.86;74.30
62978;BME280;49073;42.352;23.808;2022-07-29T06:22:42;94921.97;;;20.92;72.98
62978;BME280;49073;42.352;23.808;2022-07-29T06:25:43;94920.38;;;20.95;72.97
62978;BME280;49073;42.352;23.808;2022-07-29T06:28:43;94928.09;;;20.97;71.87
62978;BME280;49073;42.352;23.808;2022-07-29T06:31:43;94924.69;;;20.92;70.28
62978;BME280;49073;42.352;23.808;2022-07-29T06:34:44;94930.19;;;21.09;71.79
62978;BME280;49073;42.352;23.808;2022-07-29T06:37:44;94928.34;;;21.02;70.63
62978;BME280;49073;42.352;23.808;2022-07-29T06:40:45;94921.84;;;21.00;70.24
62978;BME280;49073;42.352;23.808;2022-07-29T06:44:01;94922.41;;;21.11;69.38
62978;BME280;49073;42.352;23.808;2022-07-29T06:47:01;94922.31;;;21.15;71.25
62978;BME280;49073;42.352;23.808;2022-07-29T06:50:02;94922.22;;;21.22;70.88
62978;BME280;49073;42.352;23.808;2022-07-29T06:53:03;94916.50;;;21.36;71.28
62978;BME280;49073;42.352;23.808;2022-07-29T06:56:04;94924.50;;;21.44;71.41
62978;BME280;49073;42.352;23.808;2022-07-29T06:59:04;94911.91;;;21.54;70.94
62978;BME280;49073;42.352;23.808;2022-07-29T07:02:05;94916.41;;;21.60;70.83
62978;BME280;49073;42.352;23.808;2022-07-29T07:05:06;94918.63;;;21.45;69.78
62978;BME280;49073;42.352;23.808;2022-07-29T07:08:07;94915.53;;;21.67;69.58
62978;BME280;49073;42.352;23.808;2022-07-29T07:11:08;94913.56;;;21.68;70.37
62978;BME280;49073;42.352;23.808;2022-07-29T07:14:08;94916.47;;;21.77;70.26
62978;BME280;49073;42.352;23.808;2022-07-29T07:17:08;94917.28;;;21.94;71.15
62978;BME280;49073;42.352;23.808;2022-07-29T07:20:09;94918.38;;;21.97;68.82
62978;BME280;49073;42.352;23.808;2022-07-29T07:23:10;94915.91;;;22.02;68.73
62978;BME280;49073;42.352;23.808;2022-07-29T07:26:10;94922.75;;;22.11;69.48
62978;BME280;49073;42.352;23.808;2022-07-29T07:29:10;94925.19;;;22.21;69.46
62978;BME280;49073;42.352;23.808;2022-07-29T07:32:11;94915.34;;;22.28;69.04
62978;BME280;49073;42.352;23.808;2022-07-29T07:35:13;94924.84;;;22.36;68.17
62978;BME280;49073;42.352;23.808;2022-07-29T07:38:13;94927.78;;;22.45;68.03
62978;BME280;49073;42.352;23.808;2022-07-29T07:41:14;94921.41;;;22.69;69.25
62978;BME280;49073;42.352;23.808;2022-07-29T07:44:14;94920.44;;;22.75;66.27
62978;BME280;49073;42.352;23.808;2022-07-29T07:47:15;94915.06;;;22.88;69.52
62978;BME280;49073;42.352;23.808;2022-07-29T07:50:19;94916.16;;;22.91;67.09
62978;BME280;49073;42.352;23.808;2022-07-29T07:53:20;94913.28;;;22.98;66.07
62978;BME280;49073;42.352;23.808;2022-07-29T07:56:20;94916.34;;;23.00;64.85
62978;BME280;49073;42.352;23.808;2022-07-29T07:59:20;94907.88;;;23.11;65.16
62978;BME280;49073;42.352;23.808;2022-07-29T08:02:22;94913.72;;;23.26;65.56
62978;BME280;49073;42.352;23.808;2022-07-29T08:05:23;94905.59;;;23.39;65.00
62978;BME280;49073;42.352;23.808;2022-07-29T08:08:23;94920.63;;;23.44;63.74
62978;BME280;49073;42.352;23.808;2022-07-29T08:11:23;94916.31;;;23.59;65.54
62978;BME280;49073;42.352;23.808;2022-07-29T08:14:24;94911.75;;;23.82;65.59
62978;BME280;49073;42.352;23.808;2022-07-29T08:17:24;94906.88;;;23.90;62.84
62978;BME280;49073;42.352;23.808;2022-07-29T08:20:25;94912.53;;;23.95;61.79
62978;BME280;49073;42.352;23.808;2022-07-29T08:23:26;94902.41;;;24.09;61.54
62978;BME280;49073;42.352;23.808;2022-07-29T08:26:40;94902.66;;;24.15;60.11
62978;BME280;49073;42.352;23.808;2022-07-29T08:29:40;94902.91;;;24.43;57.77
62978;BME280;49073;42.352;23.808;2022-07-29T08:32:41;94903.53;;;24.60;52.99
62978;BME280;49073;42.352;23.808;2022-07-29T08:35:41;94907.69;;;24.64;52.92
62978;BME280;49073;42.352;23.808;2022-07-29T08:38:41;94909.06;;;24.82;50.50
62978;BME280;49073;42.352;23.808;2022-07-29T08:41:42;94905.47;;;24.85;51.66
62978;BME280;49073;42.352;23.808;2022-07-29T08:44:43;94909.94;;;24.92;51.99
62978;BME280;49073;42.352;23.808;2022-07-29T08:47:44;94906.59;;;25.10;49.79
62978;BME280;49073;42.352;23.808;2022-07-29T08:50:45;94910.69;;;25.15;50.35
62978;BME280;49073;42.352;23.808;2022-07-29T08:53:46;94904.09;;;25.25;48.69
62978;BME280;49073;42.352;23.808;2022-07-29T08:56:50;94906.56;;;25.32;47.41
62978;BME280;49073;42.352;23.808;2022-07-29T08:59:50;94899.47;;;25.35;46.16
62978;BME280;49073;42.352;23.808;2022-07-29T09:02:56;94886.91;;;25.60;46.38
62978;BME280;49073;42.352;23.808;2022-07-29T09:05:57;94889.69;;;25.69;46.23
62978;BME280;49073;42.352;23.808;2022-07-29T09:08:58;94887.34;;;25.90;46.17
62978;BME280;49073;42.352;23.808;2022-07-29T09:11:58;94887.25;;;26.03;46.34
62978;BME280;49073;42.352;23.808;2022-07-29T09:14:59;94879.88;;;26.22;43.29
62978;BME280;49073;42.352;23.808;2022-07-29T09:18:00;94884.50;;;26.34;43.79
62978;BME280;49073;42.352;23.808;2022-07-29T09:21:00;94893.31;;;26.48;42.94
62978;BME280;49073;42.352;23.808;2022-07-29T09:24:19;94878.56;;;26.45;42.56
62978;BME280;49073;42.352;23.808;2022-07-29T09:27:21;94884.22;;;26.60;41.55
62978;BME280;49073;42.352;23.808;2022-07-29T09:30:21;94888.34;;;26.65;41.26
62978;BME280;49073;42.352;23.808;2022-07-29T09:33:23;94879.53;;;26.61;41.89
62978;BME280;49073;42.352;23.808;2022-07-29T09:36:24;94876.81;;;26.89;42.18
62978;BME280;49073;42.352;23.808;2022-07-29T09:39:28;94874.97;;;27.04;41.20
62978;BME280;49073;42.352;23.808;2022-07-29T09:42:30;94867.06;;;27.25;42.10
62978;BME280;49073;42.352;23.808;2022-07-29T09:45:33;94874.19;;;27.50;42.62
62978;BME280;49073;42.352;23.808;2022-07-29T09:48:34;94879.03;;;27.46;42.09
62978;BME280;49073;42.352;23.808;2022-07-29T09:51:34;94873.72;;;27.42;41.40
62978;BME280;49073;42.352;23.808;2022-07-29T09:54:35;94872.81;;;27.45;39.91
62978;BME280;49073;42.352;23.808;2022-07-29T09:57:39;94883.41;;;27.62;42.25
62978;BME280;49073;42.352;23.808;2022-07-29T10:00:42;94870.44;;;27.81;41.63
62978;BME280;49073;42.352;23.808;2022-07-29T10:03:51;94865.84;;;27.87;42.84
62978;BME280;49073;42.352;23.808;2022-07-29T10:06:58;94863.56;;;27.86;43.13
62978;BME280;49073;42.352;23.808;2022-07-29T10:09:59;94863.53;;;27.95;39.12
62978;BME280;49073;42.352;23.808;2022-07-29T10:13:01;94855.13;;;27.75;39.80
62978;BME280;49073;42.352;23.808;2022-07-29T10:16:01;94856.34;;;27.98;40.73
62978;BME280;49073;42.352;23.808;2022-07-29T10:19:02;94862.75;;;27.95;40.42
62978;BME280;49073;42.352;23.808;2022-07-29T10:22:04;94855.97;;;28.24;40.90
62978;BME280;49073;42.352;23.808;2022-07-29T10:25:04;94850.13;;;28.31;37.64
62978;BME280;49073;42.352;23.808;2022-07-29T10:28:05;94851.00;;;28.37;37.58
62978;BME280;49073;42.352;23.808;2022-07-29T10:31:06;94848.03;;;28.50;37.52
62978;BME280;49073;42.352;23.808;2022-07-29T10:41:01;94838.97;;;28.83;36.56
62978;BME280;49073;42.352;23.808;2022-07-29T10:44:26;94843.56;;;28.77;39.93
62978;BME280;49073;42.352;23.808;2022-07-29T10:47:27;94837.56;;;28.64;39.66
62978;BME280;49073;42.352;23.808;2022-07-29T10:50:27;94838.34;;;28.40;37.80
62978;BME280;49073;42.352;23.808;2022-07-29T10:53:47;94835.84;;;27.93;36.19
62978;BME280;49073;42.352;23.808;2022-07-29T10:56:47;94826.44;;;27.42;38.91
62978;BME280;49073;42.352;23.808;2022-07-29T10:59:49;94836.31;;;27.39;38.82
62978;BME280;49073;42.352;23.808;2022-07-29T11:02:49;94829.94;;;27.42;40.13
62978;BME280;49073;42.352;23.808;2022-07-29T11:05:56;94831.03;;;27.26;38.80
62978;BME280;49073;42.352;23.808;2022-07-29T11:22:30;94818.78;;;27.12;39.19
62978;BME280;49073;42.352;23.808;2022-07-29T11:25:31;94823.53;;;27.45;41.78
62978;BME280;49073;42.352;23.808;2022-07-29T11:28:31;94815.78;;;27.53;39.85
62978;BME280;49073;42.352;23.808;2022-07-29T11:34:39;94819.56;;;27.56;38.37
62978;BME280;49073;42.352;23.808;2022-07-29T11:37:40;94811.25;;;27.32;37.76
62978;BME280;49073;42.352;23.808;2022-07-29T11:40:41;94813.22;;;27.50;39.61
62978;BME280;49073;42.352;23.808;2022-07-29T11:43:48;94816.69;;;27.93;40.61
62978;BME280;49073;42.352;23.808;2022-07-29T11:46:49;94805.56;;;28.21;39.45
62978;BME280;49073;42.352;23.808;2022-07-29T11:49:51;94803.09;;;28.33;37.82
62978;BME280;49073;42.352;23.808;2022-07-29T11:52:51;94802.97;;;27.93;37.80
62978;BME280;49073;42.352;23.808;2022-07-29T11:55:54;94805.00;;;27.83;37.68
62978;BME280;49073;42.352;23.808;2022-07-29T11:59:04;94805.50;;;28.06;36.63
62978;BME280;49073;42.352;23.808;2022-07-29T12:02:05;94797.84;;;27.86;37.22
62978;BME280;49073;42.352;23.808;2022-07-29T12:05:06;94800.66;;;28.25;39.03
62978;BME280;49073;42.352;23.808;2022-07-29T12:08:07;94792.63;;;28.85;36.11
62978;BME280;49073;42.352;23.808;2022-07-29T12:11:14;94798.41;;;29.17;36.07
62978;BME280;49073;42.352;23.808;2022-07-29T12:14:25;94797.66;;;29.17;35.41
62978;BME280;49073;42.352;23.808;2022-07-29T12:17:26;94786.97;;;29.04;35.50
62978;BME280;49073;42.352;23.808;2022-07-29T12:20:29;94782.97;;;28.90;36.47
62978;BME280;49073;42.352;23.808;2022-07-29T12:23:33;94782.72;;;29.03;35.24
62978;BME280;49073;42.352;23.808;2022-07-29T12:26:33;94792.75;;;29.21;37.16
62978;BME280;49073;42.352;23.808;2022-07-29T12:29:33;94797.66;;;29.02;35.66
62978;BME280;49073;42.352;23.808;2022-07-29T12:32:40;94781.94;;;29.02;34.44
62978;BME280;49073;42.352;23.808;2022-07-29T12:35:42;94778.34;;;29.11;35.73
62978;BME280;49073;42.352;23.808;2022-07-29T12:38:43;94774.16;;;29.31;34.21
62978;BME280;49073;42.352;23.808;2022-07-29T12:41:44;94774.44;;;29.33;35.60
62978;BME280;49073;42.352;23.808;2022-07-29T12:44:48;94777.97;;;29.49;34.95
62978;BME280;49073;42.352;23.808;2022-07-29T12:47:52;94776.72;;;29.35;32.37
62978;BME280;49073;42.352;23.808;2022-07-29T12:50:53;94774.47;;;28.88;33.07
62978;BME280;49073;42.352;23.808;2022-07-29T12:54:05;94766.25;;;28.88;34.31
62978;BME280;49073;42.352;23.808;2022-07-29T12:57:05;94756.19;;;29.15;33.54
62978;BME280;49073;42.352;23.808;2022-07-29T13:03:10;94758.38;;;29.11;35.93
62978;BME280;49073;42.352;23.808;2022-07-29T13:09:39;94749.88;;;28.94;35.29
62978;BME280;49073;42.352;23.808;2022-07-29T13:16:05;94738.31;;;29.35;37.44
62978;BME280;49073;42.352;23.808;2022-07-29T13:19:08;94736.28;;;29.65;33.90
62978;BME280;49073;42.352;23.808;2022-07-29T13:22:16;94739.19;;;29.61;35.15
62978;BME280;49073;42.352;23.808;2022-07-29T13:25:23;94739.34;;;29.73;33.01
62978;BME280;49073;42.352;23.808;2022-07-29T13:28:24;94728.72;;;29.81;33.81
62978;BME280;49073;42.352;23.808;2022-07-29T13:31:24;94740.81;;;29.68;32.08
62978;BME280;49073;42.352;23.808;2022-07-29T13:34:24;94730.56;;;29.69;33.99
62978;BME280;49073;42.352;23.808;2022-07-29T13:37:25;94723.69;;;29.58;32.84
62978;BME280;49073;42.352;23.808;2022-07-29T13:40:26;94729.50;;;29.81;33.12
62978;BME280;49073;42.352;23.808;2022-07-29T13:43:26;94723.78;;;29.85;32.81
62978;BME280;49073;42.352;23.808;2022-07-29T13:46:26;94719.78;;;30.01;32.48
62978;BME280;49073;42.352;23.808;2022-07-29T13:49:27;94722.28;;;30.04;32.27
62978;BME280;49073;42.352;23.808;2022-07-29T13:52:27;94718.44;;;29.96;32.97
62978;BME280;49073;42.352;23.808;2022-07-29T13:55:27;94711.22;;;29.78;33.13
62978;BME280;49073;42.352;23.808;2022-07-29T13:58:28;94716.78;;;29.63;32.38
62978;BME280;49073;42.352;23.808;2022-07-29T14:01:28;94704.00;;;29.60;33.15
62978;BME280;49073;42.352;23.808;2022-07-29T14:04:30;94703.78;;;29.64;33.63
62978;BME280;49073;42.352;23.808;2022-07-29T14:07:30;94709.50;;;29.60;33.30
62978;BME280;49073;42.352;23.808;2022-07-29T14:10:30;94706.09;;;29.50;33.74
62978;BME280;49073;42.352;23.808;2022-07-29T14:13:31;94707.28;;;29.64;32.90
62978;BME280;49073;42.352;23.808;2022-07-29T14:16:31;94707.63;;;29.51;31.87
62978;BME280;49073;42.352;23.808;2022-07-29T14:19:32;94703.91;;;29.54;32.92
62978;BME280;49073;42.352;23.808;2022-07-29T14:22:35;94697.00;;;29.59;32.30
62978;BME280;49073;42.352;23.808;2022-07-29T14:25:35;94697.81;;;29.65;33.02
62978;BME280;49073;42.352;23.808;2022-07-29T14:28:36;94703.16;;;29.54;32.91
62978;BME280;49073;42.352;23.808;2022-07-29T14:31:36;94703.91;;;29.54;33.79
62978;BME280;49073;42.352;23.808;2022-07-29T14:34:36;94695.06;;;29.65;33.66
62978;BME280;49073;42.352;23.808;2022-07-29T14:37:37;94702.06;;;29.30;31.76
62978;BME280;49073;42.352;23.808;2022-07-29T14:40:39;94698.72;;;28.91;32.26
62978;BME280;49073;42.352;23.808;2022-07-29T14:43:40;94689.06;;;28.80;33.44
62978;BME280;49073;42.352;23.808;2022-07-29T14:46:40;94687.22;;;28.77;34.31
62978;BME280;49073;42.352;23.808;2022-07-29T14:49:40;94690.44;;;28.60;34.30
62978;BME280;49073;42.352;23.808;2022-07-29T14:52:41;94687.97;;;28.48;33.02
62978;BME280;49073;42.352;23.808;2022-07-29T14:55:41;94686.97;;;28.60;33.27
62978;BME280;49073;42.352;23.808;2022-07-29T14:58:41;94681.38;;;28.69;32.94
62978;BME280;49073;42.352;23.808;2022-07-29T15:01:42;94687.31;;;28.68;33.22
62978;BME280;49073;42.352;23.808;2022-07-29T15:04:43;94679.75;;;28.63;34.12
62978;BME280;49073;42.352;23.808;2022-07-29T15:07:45;94687.59;;;28.40;35.22
62978;BME280;49073;42.352;23.808;2022-07-29T15:10:46;94687.88;;;28.27;34.67
62978;BME280;49073;42.352;23.808;2022-07-29T15:13:46;94683.50;;;28.20;33.15
62978;BME280;49073;42.352;23.808;2022-07-29T15:16:47;94679.91;;;28.14;35.12
62978;BME280;49073;42.352;23.808;2022-07-29T15:19:47;94677.72;;;28.18;34.43
62978;BME280;49073;42.352;23.808;2022-07-29T15:22:47;94683.50;;;28.20;33.23
62978;BME280;49073;42.352;23.808;2022-07-29T15:25:48;94687.28;;;28.23;34.34
62978;BME280;49073;42.352;23.808;2022-07-29T15:28:48;94679.06;;;28.23;35.05
62978;BME280;49073;42.352;23.808;2022-07-29T15:31:49;94671.53;;;28.33;35.04
62978;BME280;49073;42.352;23.808;2022-07-29T15:34:50;94678.81;;;28.36;35.27
62978;BME280;49073;42.352;23.808;2022-07-29T15:37:50;94675.63;;;28.13;34.72
62978;BME280;49073;42.352;23.808;2022-07-29T15:40:50;94675.09;;;28.24;35.95
62978;BME280;49073;42.352;23.808;2022-07-29T15:43:51;94672.09;;;28.37;35.37
62978;BME280;49073;42.352;23.808;2022-07-29T15:46:51;94674.00;;;28.30;35.71
62978;BME280;49073;42.352;23.808;2022-07-29T15:50:04;94671.03;;;28.34;35.49
62978;BME280;49073;42.352;23.808;2022-07-29T15:53:04;94668.94;;;28.14;35.23
62978;BME280;49073;42.352;23.808;2022-07-29T15:56:05;94677.00;;;27.93;35.97
62978;BME280;49073;42.352;23.808;2022-07-29T15:59:05;94669.22;;;27.77;35.81
62978;BME280;49073;42.352;23.808;2022-07-29T16:02:06;94682.53;;;27.84;35.22
62978;BME280;49073;42.352;23.808;2022-07-29T16:05:06;94681.81;;;27.98;36.86
62978;BME280;49073;42.352;23.808;2022-07-29T16:08:06;94690.72;;;28.08;36.60
62978;BME280;49073;42.352;23.808;2022-07-29T16:11:07;94686.22;;;28.20;37.54
62978;BME280;49073;42.352;23.808;2022-07-29T16:14:08;94680.28;;;28.22;36.77
62978;BME280;49073;42.352;23.808;2022-07-29T16:17:10;94675.63;;;28.13;36.28
62978;BME280;49073;42.352;23.808;2022-07-29T16:20:10;94682.22;;;28.06;37.03
62978;BME280;49073;42.352;23.808;2022-07-29T16:23:11;94686.28;;;28.11;36.75
62978;BME280;49073;42.352;23.808;2022-07-29T16:26:11;94682.97;;;28.07;37.75
62978;BME280;49073;42.352;23.808;2022-07-29T16:29:12;94686.50;;;27.83;37.93
62978;BME280;49073;42.352;23.808;2022-07-29T16:32:13;94688.81;;;27.75;38.04